^^
Datos históricos de la estación: Murcia-Puente Tocinos
Diario Informe para Abril 21, 2017 Unidades:  Ambas    Inglés   Métrico
« Anterior Día
Siguiente Día »
Diario Semanal Mensual Anual Configurable
  Máximo: Mínimo: Media:
Temperatura: 63.7 °F /  17.6 °C 53.2 °F /  11.8 °C 58.5 °F /  14.7 °C
Punto de rocio: 46.6 °F /  8.1 °C 38.8 °F /  3.8 °C 42.3 °F /  5.7 °C
Humedad: 70% 43% 55%
Velocidad viento: 15.2mph /  24.5km/h - 8.8mph /  14.1km/h
Racha viento: 35.1mph /  56.5km/h - -
Viento- - ENE
Presión: 30.3 in /  1026.0 hPa 30.2 in /  1022.2 hPa -
Precipitación: 0 in /  0.0 mm    
Historical Graphs
 
 
Tabla de datos para Abril 21, 2017
Hora Temperatura Punto de rocio Presión Viento Velocidad viento Racha viento Humedad Intensidad lluvia(por hora) Nubes
00:04 55.6 °F /  13.1 °C 43.2 °F /  6.2 °C 30.3in /  1024.3hPa NNE 6.2mph /  10.0km/h 35.1mph /  56.5km/h 63% 0in /  0.0mm SCT
00:09 55.2 °F /  12.9 °C 42.8 °F /  6.0 °C 30.3in /  1024.6hPa NNE 5.4mph /  8.7km/h 35.1mph /  56.5km/h 63% 0in /  0.0mm SCT
00:14 55 °F /  12.8 °C 43.2 °F /  6.2 °C 30.3in /  1024.6hPa ENE 5.4mph /  8.7km/h 35.1mph /  56.5km/h 64% 0in /  0.0mm FEW
00:19 55 °F /  12.8 °C 43.2 °F /  6.2 °C 30.3in /  1024.6hPa NE 5.2mph /  8.4km/h 35.1mph /  56.5km/h 64% 0in /  0.0mm FEW
00:24 55 °F /  12.8 °C 43.2 °F /  6.2 °C 30.3in /  1024.3hPa NE 5.2mph /  8.4km/h 35.1mph /  56.5km/h 64% 0in /  0.0mm FEW
00:29 54.9 °F /  12.7 °C 43 °F /  6.1 °C 30.3in /  1024.3hPa North 5.4mph /  8.7km/h 35.1mph /  56.5km/h 64% 0in /  0.0mm FEW
00:34 54.9 °F /  12.7 °C 43 °F /  6.1 °C 30.3in /  1024.3hPa NE 5.4mph /  8.7km/h 35.1mph /  56.5km/h 64% 0in /  0.0mm FEW
00:39 54.9 °F /  12.7 °C 43 °F /  6.1 °C 30.3in /  1024.3hPa NE 4mph /  6.4km/h 35.1mph /  56.5km/h 64% 0in /  0.0mm FEW
00:44 54.9 °F /  12.7 °C 43 °F /  6.1 °C 30.3in /  1024.3hPa NNE 4mph /  6.4km/h 35.1mph /  56.5km/h 64% 0in /  0.0mm FEW
00:49 54.9 °F /  12.7 °C 43 °F /  6.1 °C 30.3in /  1024.3hPa WNW 3.1mph /  5.0km/h 35.1mph /  56.5km/h 64% 0in /  0.0mm FEW
00:54 54.9 °F /  12.7 °C 42.4 °F /  5.8 °C 30.3in /  1024.3hPa North 3.1mph /  5.0km/h 35.1mph /  56.5km/h 63% 0in /  0.0mm FEW
00:59 54.9 °F /  12.7 °C 42.4 °F /  5.8 °C 30.3in /  1024.3hPa NW 2.4mph /  3.9km/h 35.1mph /  56.5km/h 63% 0in /  0.0mm FEW
01:04 54.9 °F /  12.7 °C 42.4 °F /  5.8 °C 30.3in /  1024.3hPa NNW 2.4mph /  3.9km/h 35.1mph /  56.5km/h 63% 0in /  0.0mm FEW
01:09 54.9 °F /  12.7 °C 42.1 °F /  5.6 °C 30.3in /  1024.3hPa North 2.4mph /  3.9km/h 35.1mph /  56.5km/h 62% 0in /  0.0mm FEW
01:14 54.9 °F /  12.7 °C 41.7 °F /  5.4 °C 30.3in /  1024.3hPa North 2.4mph /  3.9km/h 35.1mph /  56.5km/h 61% 0in /  0.0mm FEW
01:19 55 °F /  12.8 °C 41.4 °F /  5.2 °C 30.3in /  1024.3hPa North 2.9mph /  4.7km/h 35.1mph /  56.5km/h 60% 0in /  0.0mm SCT
01:25 55.2 °F /  12.9 °C 41.2 °F /  5.1 °C 30.2in /  1023.9hPa NNE 2.9mph /  4.7km/h 35.1mph /  56.5km/h 59% 0in /  0.0mm FEW
01:30 55.2 °F /  12.9 °C 40.6 °F /  4.8 °C 30.2in /  1023.9hPa North 4mph /  6.4km/h 35.1mph /  56.5km/h 58% 0in /  0.0mm FEW
01:35 55.4 °F /  13.0 °C 40.8 °F /  4.9 °C 30.2in /  1023.9hPa NNW 4mph /  6.4km/h 35.1mph /  56.5km/h 58% 0in /  0.0mm FEW
01:40 55.6 °F /  13.1 °C 40.6 °F /  4.8 °C 30.2in /  1023.9hPa NNW 2.9mph /  4.7km/h 35.1mph /  56.5km/h 57% 0in /  0.0mm FEW
01:45 55.6 °F /  13.1 °C 40.1 °F /  4.5 °C 30.2in /  1023.9hPa NNW 2.9mph /  4.7km/h 35.1mph /  56.5km/h 56% 0in /  0.0mm FEW
01:50 55.8 °F /  13.2 °C 40.3 °F /  4.6 °C 30.3in /  1024.3hPa North 2.4mph /  3.9km/h 35.1mph /  56.5km/h 56% 0in /  0.0mm FEW
01:55 55.9 °F /  13.3 °C 40.5 °F /  4.7 °C 30.3in /  1024.3hPa North 2.4mph /  3.9km/h 35.1mph /  56.5km/h 56% 0in /  0.0mm FEW
02:00 56.1 °F /  13.4 °C 40.3 °F /  4.6 °C 30.3in /  1024.3hPa NNE 3.6mph /  5.8km/h 35.1mph /  56.5km/h 55% 0in /  0.0mm FEW
02:05 56.1 °F /  13.4 °C 40.3 °F /  4.6 °C 30.2in /  1023.9hPa NNE 3.6mph /  5.8km/h 35.1mph /  56.5km/h 55% 0in /  0.0mm FEW
02:10 56.1 °F /  13.4 °C 40.3 °F /  4.6 °C 30.2in /  1023.9hPa NE 3.6mph /  5.8km/h 35.1mph /  56.5km/h 55% 0in /  0.0mm FEW
02:15 56.3 °F /  13.5 °C 40.3 °F /  4.6 °C 30.2in /  1023.9hPa NNE 3.6mph /  5.8km/h 35.1mph /  56.5km/h 55% 0in /  0.0mm CLR
02:20 56.3 °F /  13.5 °C 40.3 °F /  4.6 °C 30.2in /  1023.6hPa North 3.1mph /  5.0km/h 35.1mph /  56.5km/h 55% 0in /  0.0mm CLR
02:25 56.5 °F /  13.6 °C 41 °F /  5.0 °C 30.2in /  1023.6hPa NE 3.1mph /  5.0km/h 35.1mph /  56.5km/h 56% 0in /  0.0mm CLR
02:30 56.7 °F /  13.7 °C 41.2 °F /  5.1 °C 30.2in /  1023.6hPa NE 4.3mph /  6.9km/h 35.1mph /  56.5km/h 56% 0in /  0.0mm CLR
02:35 56.7 °F /  13.7 °C 41.5 °F /  5.3 °C 30.2in /  1023.6hPa WNW 4.3mph /  6.9km/h 35.1mph /  56.5km/h 57% 0in /  0.0mm CLR
02:40 56.7 °F /  13.7 °C 41.2 °F /  5.1 °C 30.2in /  1023.6hPa WNW 4.7mph /  7.6km/h 35.1mph /  56.5km/h 56% 0in /  0.0mm CLR
02:45 56.8 °F /  13.8 °C 41.7 °F /  5.4 °C 30.2in /  1023.6hPa NNW 4.7mph /  7.6km/h 35.1mph /  56.5km/h 57% 0in /  0.0mm CLR
02:50 56.8 °F /  13.8 °C 41.7 °F /  5.4 °C 30.2in /  1023.2hPa NNE 4.7mph /  7.6km/h 35.1mph /  56.5km/h 57% 0in /  0.0mm CLR
02:55 56.8 °F /  13.8 °C 41.7 °F /  5.4 °C 30.2in /  1023.2hPa North 4.7mph /  7.6km/h 35.1mph /  56.5km/h 57% 0in /  0.0mm CLR
03:00 56.8 °F /  13.8 °C 41.7 °F /  5.4 °C 30.2in /  1023.2hPa NE 4mph /  6.4km/h 35.1mph /  56.5km/h 57% 0in /  0.0mm CLR
03:06 56.8 °F /  13.8 °C 41.7 °F /  5.4 °C 30.2in /  1023.2hPa NNE 4mph /  6.4km/h 35.1mph /  56.5km/h 57% 0in /  0.0mm CLR
03:11 56.8 °F /  13.8 °C 41.7 °F /  5.4 °C 30.2in /  1023.2hPa NNE 5.2mph /  8.4km/h 35.1mph /  56.5km/h 57% 0in /  0.0mm CLR
03:16 56.8 °F /  13.8 °C 41.7 °F /  5.4 °C 30.2in /  1023.2hPa NNE 5.2mph /  8.4km/h 35.1mph /  56.5km/h 57% 0in /  0.0mm CLR
03:21 56.7 °F /  13.7 °C 41.5 °F /  5.3 °C 30.2in /  1022.9hPa NE 6.4mph /  10.3km/h 35.1mph /  56.5km/h 57% 0in /  0.0mm CLR
03:26 56.7 °F /  13.7 °C 41.5 °F /  5.3 °C 30.2in /  1022.9hPa NNE 6.4mph /  10.3km/h 35.1mph /  56.5km/h 57% 0in /  0.0mm CLR
03:31 56.7 °F /  13.7 °C 42.1 °F /  5.6 °C 30.2in /  1022.9hPa NNE 5.2mph /  8.4km/h 35.1mph /  56.5km/h 58% 0in /  0.0mm CLR
03:36 56.7 °F /  13.7 °C 42.1 °F /  5.6 °C 30.2in /  1022.6hPa NE 5.2mph /  8.4km/h 35.1mph /  56.5km/h 58% 0in /  0.0mm CLR
03:41 56.7 °F /  13.7 °C 41.5 °F /  5.3 °C 30.2in /  1022.6hPa NNW 5.4mph /  8.7km/h 35.1mph /  56.5km/h 57% 0in /  0.0mm CLR
03:46 56.7 °F /  13.7 °C 41.5 °F /  5.3 °C 30.2in /  1022.6hPa NNE 5.4mph /  8.7km/h 35.1mph /  56.5km/h 57% 0in /  0.0mm CLR
03:51 56.7 °F /  13.7 °C 42.1 °F /  5.6 °C 30.2in /  1022.6hPa NE 5.4mph /  8.7km/h 35.1mph /  56.5km/h 58% 0in /  0.0mm CLR
03:56 56.5 °F /  13.6 °C 41.9 °F /  5.5 °C 30.2in /  1022.6hPa North 5.2mph /  8.4km/h 35.1mph /  56.5km/h 58% 0in /  0.0mm CLR
04:01 56.5 °F /  13.6 °C 42.3 °F /  5.7 °C 30.2in /  1022.6hPa NNE 5.2mph /  8.4km/h 35.1mph /  56.5km/h 59% 0in /  0.0mm CLR
04:06 56.3 °F /  13.5 °C 42.1 °F /  5.6 °C 30.2in /  1022.6hPa North 4.7mph /  7.6km/h 35.1mph /  56.5km/h 59% 0in /  0.0mm CLR
04:11 56.1 °F /  13.4 °C 42.1 °F /  5.6 °C 30.2in /  1022.6hPa NW 4.7mph /  7.6km/h 35.1mph /  56.5km/h 59% 0in /  0.0mm CLR
04:16 56.1 °F /  13.4 °C 42.1 °F /  5.6 °C 30.2in /  1022.6hPa NNW 4.3mph /  6.9km/h 35.1mph /  56.5km/h 59% 0in /  0.0mm CLR
04:21 56.1 °F /  13.4 °C 42.4 °F /  5.8 °C 30.2in /  1022.2hPa North 4.3mph /  6.9km/h 35.1mph /  56.5km/h 60% 0in /  0.0mm CLR
04:26 56.1 °F /  13.4 °C 42.1 °F /  5.6 °C 30.2in /  1022.2hPa NNE 4.7mph /  7.6km/h 35.1mph /  56.5km/h 59% 0in /  0.0mm CLR
04:31 56.1 °F /  13.4 °C 42.4 °F /  5.8 °C 30.2in /  1022.2hPa NNE 4.7mph /  7.6km/h 35.1mph /  56.5km/h 60% 0in /  0.0mm CLR
04:36 56.1 °F /  13.4 °C 42.4 °F /  5.8 °C 30.2in /  1022.6hPa NE 3.1mph /  5.0km/h 35.1mph /  56.5km/h 60% 0in /  0.0mm CLR
04:41 56.1 °F /  13.4 °C 42.1 °F /  5.6 °C 30.2in /  1022.6hPa North 3.1mph /  5.0km/h 35.1mph /  56.5km/h 59% 0in /  0.0mm CLR
04:46 56.3 °F /  13.5 °C 42.1 °F /  5.6 °C 30.2in /  1022.6hPa NNE 4.7mph /  7.6km/h 35.1mph /  56.5km/h 59% 0in /  0.0mm CLR
04:51 56.1 °F /  13.4 °C 42.1 °F /  5.6 °C 30.2in /  1022.6hPa NNE 4.7mph /  7.6km/h 35.1mph /  56.5km/h 59% 0in /  0.0mm CLR
04:56 56.1 °F /  13.4 °C 42.1 °F /  5.6 °C 30.2in /  1022.6hPa NNE 4.7mph /  7.6km/h 35.1mph /  56.5km/h 59% 0in /  0.0mm CLR
05:01 56.1 °F /  13.4 °C 42.4 °F /  5.8 °C 30.2in /  1022.6hPa NE 4.7mph /  7.6km/h 35.1mph /  56.5km/h 60% 0in /  0.0mm CLR
05:06 56.1 °F /  13.4 °C 42.4 °F /  5.8 °C 30.2in /  1022.6hPa NNE 4.3mph /  6.9km/h 35.1mph /  56.5km/h 60% 0in /  0.0mm CLR
05:11 55.9 °F /  13.3 °C 42.3 °F /  5.7 °C 30.2in /  1022.6hPa NNW 4.3mph /  6.9km/h 35.1mph /  56.5km/h 60% 0in /  0.0mm CLR
05:17 55.8 °F /  13.2 °C 42.4 °F /  5.8 °C 30.2in /  1022.6hPa NNE 4.3mph /  6.9km/h 35.1mph /  56.5km/h 61% 0in /  0.0mm CLR
05:22 55.8 °F /  13.2 °C 42.4 °F /  5.8 °C 30.2in /  1022.6hPa North 4.3mph /  6.9km/h 35.1mph /  56.5km/h 61% 0in /  0.0mm CLR
05:27 55.8 °F /  13.2 °C 42.4 °F /  5.8 °C 30.2in /  1022.6hPa NNE 2.9mph /  4.7km/h 35.1mph /  56.5km/h 61% 0in /  0.0mm CLR
05:32 55.6 °F /  13.1 °C 42.3 °F /  5.7 °C 30.2in /  1022.6hPa NNE 2.9mph /  4.7km/h 35.1mph /  56.5km/h 61% 0in /  0.0mm CLR
05:37 55.6 °F /  13.1 °C 42.3 °F /  5.7 °C 30.2in /  1022.6hPa NNE 2.9mph /  4.7km/h 35.1mph /  56.5km/h 61% 0in /  0.0mm CLR
05:42 55.6 °F /  13.1 °C 42.3 °F /  5.7 °C 30.2in /  1022.6hPa NNE 2.9mph /  4.7km/h 35.1mph /  56.5km/h 61% 0in /  0.0mm CLR
05:47 55.6 °F /  13.1 °C 42.3 °F /  5.7 °C 30.2in /  1022.6hPa NE 3.1mph /  5.0km/h 35.1mph /  56.5km/h 61% 0in /  0.0mm CLR
05:53 55.2 °F /  12.9 °C 42.4 °F /  5.8 °C 30.2in /  1022.6hPa NNE 3.1mph /  5.0km/h 35.1mph /  56.5km/h 62% 0in /  0.0mm CLR
05:58 55.2 °F /  12.9 °C 42.4 °F /  5.8 °C 30.2in /  1022.6hPa NNE 4.3mph /  6.9km/h 35.1mph /  56.5km/h 62% 0in /  0.0mm CLR
06:03 55.2 °F /  12.9 °C 42.4 °F /  5.8 °C 30.2in /  1022.6hPa NE 4.3mph /  6.9km/h 35.1mph /  56.5km/h 62% 0in /  0.0mm CLR
06:08 55.2 °F /  12.9 °C 42.4 °F /  5.8 °C 30.2in /  1022.6hPa North 5.2mph /  8.4km/h 35.1mph /  56.5km/h 62% 0in /  0.0mm CLR
06:13 55 °F /  12.8 °C 42.3 °F /  5.7 °C 30.2in /  1022.6hPa North 5.2mph /  8.4km/h 35.1mph /  56.5km/h 62% 0in /  0.0mm CLR
06:18 54.9 °F /  12.7 °C 42.1 °F /  5.6 °C 30.2in /  1022.6hPa NE 4.3mph /  6.9km/h 35.1mph /  56.5km/h 62% 0in /  0.0mm CLR
06:23 54.9 °F /  12.7 °C 42.1 °F /  5.6 °C 30.2in /  1022.6hPa NE 4.3mph /  6.9km/h 35.1mph /  56.5km/h 62% 0in /  0.0mm CLR
06:28 54.9 °F /  12.7 °C 42.1 °F /  5.6 °C 30.2in /  1022.6hPa NE 5.2mph /  8.4km/h 35.1mph /  56.5km/h 62% 0in /  0.0mm CLR
06:33 54.7 °F /  12.6 °C 41.9 °F /  5.5 °C 30.2in /  1022.6hPa ENE 5.2mph /  8.4km/h 35.1mph /  56.5km/h 62% 0in /  0.0mm CLR
06:38 54.5 °F /  12.5 °C 41.7 °F /  5.4 °C 30.2in /  1022.6hPa North 5.2mph /  8.4km/h 35.1mph /  56.5km/h 62% 0in /  0.0mm CLR
06:43 54.3 °F /  12.4 °C 41.5 °F /  5.3 °C 30.2in /  1022.6hPa NE 5.2mph /  8.4km/h 35.1mph /  56.5km/h 62% 0in /  0.0mm CLR
06:48 54.1 °F /  12.3 °C 41.7 °F /  5.4 °C 30.2in /  1022.6hPa NNE 4.7mph /  7.6km/h 35.1mph /  56.5km/h 63% 0in /  0.0mm CLR
06:53 54 °F /  12.2 °C 41.5 °F /  5.3 °C 30.2in /  1022.9hPa NE 4.7mph /  7.6km/h 35.1mph /  56.5km/h 63% 0in /  0.0mm CLR
06:58 53.8 °F /  12.1 °C 41.5 °F /  5.3 °C 30.2in /  1022.9hPa NNE 5.9mph /  9.5km/h 35.1mph /  56.5km/h 63% 0in /  0.0mm CLR
07:03 53.6 °F /  12.0 °C 41.4 °F /  5.2 °C 30.2in /  1022.9hPa NNE 5.9mph /  9.5km/h 35.1mph /  56.5km/h 63% 0in /  0.0mm
07:08 53.4 °F /  11.9 °C 40.6 °F /  4.8 °C 30.2in /  1022.9hPa NNE 5.4mph /  8.7km/h 35.1mph /  56.5km/h 62% 0in /  0.0mm
07:13 53.4 °F /  11.9 °C 40.6 °F /  4.8 °C 30.2in /  1022.9hPa NNE 5.4mph /  8.7km/h 35.1mph /  56.5km/h 62% 0in /  0.0mm
07:18 53.4 °F /  11.9 °C 40.6 °F /  4.8 °C 30.2in /  1022.9hPa NE 5.4mph /  8.7km/h 35.1mph /  56.5km/h 62% 0in /  0.0mm
07:23 53.4 °F /  11.9 °C 40.6 °F /  4.8 °C 30.2in /  1023.2hPa NNE 5.4mph /  8.7km/h 35.1mph /  56.5km/h 62% 0in /  0.0mm
07:28 53.4 °F /  11.9 °C 40.6 °F /  4.8 °C 30.2in /  1023.2hPa NE 5.9mph /  9.5km/h 35.1mph /  56.5km/h 62% 0in /  0.0mm
07:33 53.2 °F /  11.8 °C 40.5 °F /  4.7 °C 30.2in /  1023.2hPa NNE 5.9mph /  9.5km/h 35.1mph /  56.5km/h 62% 0in /  0.0mm
07:38 53.2 °F /  11.8 °C 40.5 °F /  4.7 °C 30.2in /  1023.2hPa NE 5.4mph /  8.7km/h 35.1mph /  56.5km/h 62% 0in /  0.0mm
07:43 53.2 °F /  11.8 °C 40.5 °F /  4.7 °C 30.2in /  1023.2hPa NNE 5.4mph /  8.7km/h 35.1mph /  56.5km/h 62% 0in /  0.0mm
07:48 53.2 °F /  11.8 °C 40.5 °F /  4.7 °C 30.2in /  1023.2hPa NE 5.9mph /  9.5km/h 35.1mph /  56.5km/h 62% 0in /  0.0mm
07:53 53.2 °F /  11.8 °C 40.5 °F /  4.7 °C 30.2in /  1023.6hPa North 5.9mph /  9.5km/h 35.1mph /  56.5km/h 62% 0in /  0.0mm
07:58 53.2 °F /  11.8 °C 40.5 °F /  4.7 °C 30.2in /  1023.6hPa NNE 4.7mph /  7.6km/h 35.1mph /  56.5km/h 62% 0in /  0.0mm
08:03 53.4 °F /  11.9 °C 40.6 °F /  4.8 °C 30.2in /  1023.6hPa NE 4.7mph /  7.6km/h 35.1mph /  56.5km/h 62% 0in /  0.0mm
08:08 53.6 °F /  12.0 °C 40.5 °F /  4.7 °C 30.2in /  1023.9hPa North 4mph /  6.4km/h 35.1mph /  56.5km/h 61% 0in /  0.0mm
08:13 53.6 °F /  12.0 °C 40.8 °F /  4.9 °C 30.2in /  1023.9hPa NNE 4mph /  6.4km/h 35.1mph /  56.5km/h 62% 0in /  0.0mm
08:18 53.8 °F /  12.1 °C 41.2 °F /  5.1 °C 30.2in /  1023.9hPa NNE 4mph /  6.4km/h 35.1mph /  56.5km/h 62% 0in /  0.0mm FEW
08:23 54 °F /  12.2 °C 41.2 °F /  5.1 °C 30.2in /  1023.9hPa NNE 4mph /  6.4km/h 35.1mph /  56.5km/h 62% 0in /  0.0mm FEW
08:28 54.1 °F /  12.3 °C 41.4 °F /  5.2 °C 30.2in /  1023.9hPa ENE 3.1mph /  5.0km/h 35.1mph /  56.5km/h 62% 0in /  0.0mm FEW
08:33 54.1 °F /  12.3 °C 41.4 °F /  5.2 °C 30.2in /  1023.9hPa NNE 3.1mph /  5.0km/h 35.1mph /  56.5km/h 62% 0in /  0.0mm FEW
08:38 54.7 °F /  12.6 °C 41.5 °F /  5.3 °C 30.3in /  1024.3hPa NNE 4.3mph /  6.9km/h 35.1mph /  56.5km/h 61% 0in /  0.0mm FEW
08:43 54.7 °F /  12.6 °C 41.5 °F /  5.3 °C 30.3in /  1024.3hPa NNE 4.3mph /  6.9km/h 35.1mph /  56.5km/h 61% 0in /  0.0mm FEW
08:48 54.7 °F /  12.6 °C 41.5 °F /  5.3 °C 30.3in /  1024.3hPa NNE 6.2mph /  10.0km/h 35.1mph /  56.5km/h 61% 0in /  0.0mm FEW
08:53 54.9 °F /  12.7 °C 41.7 °F /  5.4 °C 30.3in /  1024.3hPa NE 6.2mph /  10.0km/h 35.1mph /  56.5km/h 61% 0in /  0.0mm FEW
08:58 55 °F /  12.8 °C 41.4 °F /  5.2 °C 30.3in /  1024.3hPa NNE 6.4mph /  10.3km/h 35.1mph /  56.5km/h 60% 0in /  0.0mm FEW
09:03 55.4 °F /  13.0 °C 41.7 °F /  5.4 °C 30.3in /  1024.3hPa ENE 6.4mph /  10.3km/h 35.1mph /  56.5km/h 60% 0in /  0.0mm FEW
09:08 55.6 °F /  13.1 °C 41.5 °F /  5.3 °C 30.3in /  1024.3hPa NNE 9.2mph /  14.8km/h 35.1mph /  56.5km/h 59% 0in /  0.0mm FEW
09:13 55.9 °F /  13.3 °C 41.7 °F /  5.4 °C 30.3in /  1024.3hPa ENE 9.2mph /  14.8km/h 35.1mph /  56.5km/h 59% 0in /  0.0mm FEW
09:18 55.9 °F /  13.3 °C 41.4 °F /  5.2 °C 30.3in /  1024.3hPa North 10mph /  16.1km/h 35.1mph /  56.5km/h 58% 0in /  0.0mm FEW
09:23 56.1 °F /  13.4 °C 41.5 °F /  5.3 °C 30.3in /  1024.3hPa NE 10mph /  16.1km/h 35.1mph /  56.5km/h 58% 0in /  0.0mm FEW
09:28 56.5 °F /  13.6 °C 41.4 °F /  5.2 °C 30.3in /  1024.3hPa NNE 10.2mph /  16.4km/h 35.1mph /  56.5km/h 57% 0in /  0.0mm FEW
09:33 56.7 °F /  13.7 °C 41.5 °F /  5.3 °C 30.3in /  1024.3hPa NNE 10.2mph /  16.4km/h 35.1mph /  56.5km/h 57% 0in /  0.0mm FEW
09:38 56.7 °F /  13.7 °C 41.2 °F /  5.1 °C 30.3in /  1024.3hPa NE 12.5mph /  20.1km/h 35.1mph /  56.5km/h 56% 0in /  0.0mm FEW
09:43 57 °F /  13.9 °C 41.5 °F /  5.3 °C 30.3in /  1024.3hPa ENE 12.5mph /  20.1km/h 35.1mph /  56.5km/h 56% 0in /  0.0mm FEW
09:48 57.2 °F /  14.0 °C 41.2 °F /  5.1 °C 30.3in /  1024.3hPa NNE 11.2mph /  18.0km/h 35.1mph /  56.5km/h 55% 0in /  0.0mm FEW
09:53 57.6 °F /  14.2 °C 41 °F /  5.0 °C 30.3in /  1024.3hPa NE 11.2mph /  18.0km/h 35.1mph /  56.5km/h 54% 0in /  0.0mm FEW
09:58 57.7 °F /  14.3 °C 41.2 °F /  5.1 °C 30.3in /  1024.3hPa North 13.5mph /  21.7km/h 35.1mph /  56.5km/h 54% 0in /  0.0mm FEW
10:03 57.7 °F /  14.3 °C 41.2 °F /  5.1 °C 30.3in /  1024.3hPa North 13.5mph /  21.7km/h 35.1mph /  56.5km/h 54% 0in /  0.0mm FEW
10:08 57.7 °F /  14.3 °C 41.2 °F /  5.1 °C 30.3in /  1024.3hPa North 13.7mph /  22.0km/h 35.1mph /  56.5km/h 54% 0in /  0.0mm FEW
10:13 57.7 °F /  14.3 °C 40.6 °F /  4.8 °C 30.3in /  1024.3hPa NE 13.7mph /  22.0km/h 35.1mph /  56.5km/h 53% 0in /  0.0mm FEW
10:18 57.9 °F /  14.4 °C 40.8 °F /  4.9 °C 30.3in /  1024.3hPa NE 14mph /  22.5km/h 35.1mph /  56.5km/h 53% 0in /  0.0mm FEW
10:23 57.9 °F /  14.4 °C 40.8 °F /  4.9 °C 30.3in /  1024.3hPa NE 14mph /  22.5km/h 35.1mph /  56.5km/h 53% 0in /  0.0mm FEW
10:29 58.5 °F /  14.7 °C 39.9 °F /  4.4 °C 30.3in /  1024.3hPa ENE 11.2mph /  18.0km/h 35.1mph /  56.5km/h 50% 0in /  0.0mm FEW
10:34 58.6 °F /  14.8 °C 39.9 °F /  4.4 °C 30.3in /  1024.3hPa NNE 11.2mph /  18.0km/h 35.1mph /  56.5km/h 50% 0in /  0.0mm FEW
10:39 58.5 °F /  14.7 °C 40.5 °F /  4.7 °C 30.3in /  1024.6hPa North 14.5mph /  23.3km/h 35.1mph /  56.5km/h 51% 0in /  0.0mm FEW
10:44 58.6 °F /  14.8 °C 39.9 °F /  4.4 °C 30.3in /  1024.6hPa NE 14.5mph /  23.3km/h 35.1mph /  56.5km/h 50% 0in /  0.0mm FEW
10:49 59 °F /  15.0 °C 38.8 °F /  3.8 °C 30.3in /  1024.6hPa NNE 14mph /  22.5km/h 35.1mph /  56.5km/h 47% 0in /  0.0mm FEW
10:54 58.8 °F /  14.9 °C 39.2 °F /  4.0 °C 30.3in /  1024.6hPa NE 14mph /  22.5km/h 35.1mph /  56.5km/h 48% 0in /  0.0mm FEW
10:59 59.2 °F /  15.1 °C 39.9 °F /  4.4 °C 30.3in /  1024.6hPa NNE 14mph /  22.5km/h 35.1mph /  56.5km/h 49% 0in /  0.0mm FEW
11:04 59.2 °F /  15.1 °C 40.5 °F /  4.7 °C 30.3in /  1024.6hPa NE 14mph /  22.5km/h 35.1mph /  56.5km/h 50% 0in /  0.0mm FEW
11:09 59.2 °F /  15.1 °C 41.2 °F /  5.1 °C 30.3in /  1024.9hPa NNE 13.7mph /  22.0km/h 35.1mph /  56.5km/h 51% 0in /  0.0mm FEW
11:14 59.4 °F /  15.2 °C 40.6 °F /  4.8 °C 30.3in /  1024.9hPa NNE 13.7mph /  22.0km/h 35.1mph /  56.5km/h 50% 0in /  0.0mm FEW
11:19 59.5 °F /  15.3 °C 40.8 °F /  4.9 °C 30.3in /  1024.9hPa NE 14mph /  22.5km/h 35.1mph /  56.5km/h 50% 0in /  0.0mm FEW
11:24 59.7 °F /  15.4 °C 39.9 °F /  4.4 °C 30.3in /  1024.9hPa NNE 14mph /  22.5km/h 35.1mph /  56.5km/h 48% 0in /  0.0mm FEW
11:29 59.7 °F /  15.4 °C 39.9 °F /  4.4 °C 30.3in /  1024.9hPa ENE 13.5mph /  21.7km/h 35.1mph /  56.5km/h 48% 0in /  0.0mm FEW
11:34 59.7 °F /  15.4 °C 40.5 °F /  4.7 °C 30.3in /  1024.9hPa NNE 13.5mph /  21.7km/h 35.1mph /  56.5km/h 49% 0in /  0.0mm FEW
11:39 59.7 °F /  15.4 °C 39.9 °F /  4.4 °C 30.3in /  1024.9hPa NW 14mph /  22.5km/h 35.1mph /  56.5km/h 48% 0in /  0.0mm FEW
11:44 59.9 °F /  15.5 °C 40.1 °F /  4.5 °C 30.3in /  1024.9hPa NE 14mph /  22.5km/h 35.1mph /  56.5km/h 48% 0in /  0.0mm FEW
11:45 59.9 °F /  15.5 °C 40.1 °F /  4.5 °C 30.3in /  1024.9hPa NE 14mph /  22.5km/h 35.1mph /  56.5km/h 48% 0in /  0.0mm FEW
11:50 59.7 °F /  15.4 °C 40.5 °F /  4.7 °C 30.3in /  1025.3hPa NNE 15.2mph /  24.5km/h 35.1mph /  56.5km/h 49% 0in /  0.0mm FEW
11:55 60.1 °F /  15.6 °C 40.8 °F /  4.9 °C 30.3in /  1025.3hPa North 15.2mph /  24.5km/h 35.1mph /  56.5km/h 49% 0in /  0.0mm FEW
12:00 60.3 °F /  15.7 °C 41 °F /  5.0 °C 30.3in /  1025.3hPa NNE 13.5mph /  21.7km/h 35.1mph /  56.5km/h 49% 0in /  0.0mm FEW
12:05 60.4 °F /  15.8 °C 41.2 °F /  5.1 °C 30.3in /  1025.3hPa NE 13.5mph /  21.7km/h 35.1mph /  56.5km/h 49% 0in /  0.0mm FEW
12:10 60.8 °F /  16.0 °C 41 °F /  5.0 °C 30.3in /  1025.3hPa NNE 11.4mph /  18.3km/h 35.1mph /  56.5km/h 48% 0in /  0.0mm FEW
12:15 60.6 °F /  15.9 °C 40.8 °F /  4.9 °C 30.3in /  1025.3hPa ENE 11.4mph /  18.3km/h 35.1mph /  56.5km/h 48% 0in /  0.0mm FEW
12:20 60.6 °F /  15.9 °C 40.3 °F /  4.6 °C 30.3in /  1025.3hPa NNE 12.3mph /  19.8km/h 35.1mph /  56.5km/h 47% 0in /  0.0mm FEW
12:25 60.6 °F /  15.9 °C 40.8 °F /  4.9 °C 30.3in /  1025.3hPa NE 12.3mph /  19.8km/h 35.1mph /  56.5km/h 48% 0in /  0.0mm FEW
12:30 61 °F /  16.1 °C 40.6 °F /  4.8 °C 30.3in /  1025.3hPa NNW 13.7mph /  22.0km/h 35.1mph /  56.5km/h 47% 0in /  0.0mm FEW
12:35 60.6 °F /  15.9 °C 40.3 °F /  4.6 °C 30.3in /  1025.3hPa NE 13.7mph /  22.0km/h 35.1mph /  56.5km/h 47% 0in /  0.0mm FEW
12:40 60.6 °F /  15.9 °C 40.8 °F /  4.9 °C 30.3in /  1025.3hPa ENE 14.5mph /  23.3km/h 35.1mph /  56.5km/h 48% 0in /  0.0mm FEW
12:45 60.6 °F /  15.9 °C 40.8 °F /  4.9 °C 30.3in /  1025.3hPa NE 14.5mph /  23.3km/h 35.1mph /  56.5km/h 48% 0in /  0.0mm FEW
12:50 60.6 °F /  15.9 °C 41.4 °F /  5.2 °C 30.3in /  1025.3hPa NNE 14.5mph /  23.3km/h 35.1mph /  56.5km/h 49% 0in /  0.0mm FEW
12:55 61 °F /  16.1 °C 41.2 °F /  5.1 °C 30.3in /  1025.3hPa ENE 14.5mph /  23.3km/h 35.1mph /  56.5km/h 48% 0in /  0.0mm FEW
13:00 61 °F /  16.1 °C 41.2 °F /  5.1 °C 30.3in /  1025.3hPa ENE 13.7mph /  22.0km/h 35.1mph /  56.5km/h 48% 0in /  0.0mm FEW
13:05 61.2 °F /  16.2 °C 40.8 °F /  4.9 °C 30.3in /  1025.3hPa NNE 13.7mph /  22.0km/h 35.1mph /  56.5km/h 47% 0in /  0.0mm FEW
13:10 61.3 °F /  16.3 °C 41.5 °F /  5.3 °C 30.3in /  1025.3hPa North 14.7mph /  23.7km/h 35.1mph /  56.5km/h 48% 0in /  0.0mm FEW
13:15 61.5 °F /  16.4 °C 41.5 °F /  5.3 °C 30.3in /  1025.3hPa NE 14.7mph /  23.7km/h 35.1mph /  56.5km/h 48% 0in /  0.0mm FEW
13:20 61.3 °F /  16.3 °C 41.5 °F /  5.3 °C 30.3in /  1025.3hPa East 12.3mph /  19.8km/h 35.1mph /  56.5km/h 48% 0in /  0.0mm FEW
13:25 61.2 °F /  16.2 °C 41.4 °F /  5.2 °C 30.3in /  1025.3hPa North 12.3mph /  19.8km/h 35.1mph /  56.5km/h 48% 0in /  0.0mm FEW
13:30 61.3 °F /  16.3 °C 41.5 °F /  5.3 °C 30.3in /  1025.3hPa NE 13.7mph /  22.0km/h 35.1mph /  56.5km/h 48% 0in /  0.0mm FEW
13:35 61.2 °F /  16.2 °C 40.8 °F /  4.9 °C 30.3in /  1025.3hPa NNE 13.7mph /  22.0km/h 35.1mph /  56.5km/h 47% 0in /  0.0mm FEW
13:40 61.3 °F /  16.3 °C 40.8 °F /  4.9 °C 30.3in /  1025.3hPa East 14.7mph /  23.7km/h 35.1mph /  56.5km/h 47% 0in /  0.0mm FEW
13:45 62.1 °F /  16.7 °C 41.5 °F /  5.3 °C 30.3in /  1025.3hPa NNE 14.7mph /  23.7km/h 35.1mph /  56.5km/h 47% 0in /  0.0mm FEW
13:50 62.8 °F /  17.1 °C 41.7 °F /  5.4 °C 30.3in /  1024.9hPa NNE 11.8mph /  19.0km/h 35.1mph /  56.5km/h 46% 0in /  0.0mm FEW
13:55 62.6 °F /  17.0 °C 42.1 °F /  5.6 °C 30.3in /  1024.9hPa NE 11.8mph /  19.0km/h 35.1mph /  56.5km/h 47% 0in /  0.0mm FEW
14:00 62.4 °F /  16.9 °C 42.4 °F /  5.8 °C 30.3in /  1024.9hPa ENE 13mph /  20.9km/h 35.1mph /  56.5km/h 48% 0in /  0.0mm FEW
14:05 62.6 °F /  17.0 °C 42.1 °F /  5.6 °C 30.3in /  1024.6hPa ENE 13mph /  20.9km/h 35.1mph /  56.5km/h 47% 0in /  0.0mm FEW
14:10 62.2 °F /  16.8 °C 42.8 °F /  6.0 °C 30.3in /  1024.6hPa ENE 14.5mph /  23.3km/h 35.1mph /  56.5km/h 49% 0in /  0.0mm FEW
14:15 62.8 °F /  17.1 °C 42.3 °F /  5.7 °C 30.3in /  1024.6hPa North 14.5mph /  23.3km/h 35.1mph /  56.5km/h 47% 0in /  0.0mm FEW
14:20 62.8 °F /  17.1 °C 42.8 °F /  6.0 °C 30.3in /  1024.9hPa NNE 13.7mph /  22.0km/h 35.1mph /  56.5km/h 48% 0in /  0.0mm FEW
14:25 62.4 °F /  16.9 °C 42.4 °F /  5.8 °C 30.3in /  1024.9hPa ENE 13.7mph /  22.0km/h 35.1mph /  56.5km/h 48% 0in /  0.0mm FEW
14:30 62.4 °F /  16.9 °C 41.9 °F /  5.5 °C 30.3in /  1024.9hPa ENE 14.5mph /  23.3km/h 35.1mph /  56.5km/h 47% 0in /  0.0mm FEW
14:35 62.6 °F /  17.0 °C 43.2 °F /  6.2 °C 30.3in /  1024.9hPa NE 14.5mph /  23.3km/h 35.1mph /  56.5km/h 49% 0in /  0.0mm FEW
14:40 62.8 °F /  17.1 °C 43.3 °F /  6.3 °C 30.3in /  1024.9hPa NE 13.7mph /  22.0km/h 35.1mph /  56.5km/h 49% 0in /  0.0mm FEW
14:45 63.1 °F /  17.3 °C 42.6 °F /  5.9 °C 30.3in /  1024.9hPa NNE 13.7mph /  22.0km/h 35.1mph /  56.5km/h 47% 0in /  0.0mm FEW
14:50 63.3 °F /  17.4 °C 42.3 °F /  5.7 °C 30.3in /  1024.6hPa ESE 11.8mph /  19.0km/h 35.1mph /  56.5km/h 46% 0in /  0.0mm FEW
14:55 63.3 °F /  17.4 °C 42.6 °F /  5.9 °C 30.3in /  1024.6hPa North 11.8mph /  19.0km/h 35.1mph /  56.5km/h 47% 0in /  0.0mm FEW
15:00 63.5 °F /  17.5 °C 43 °F /  6.1 °C 30.3in /  1024.6hPa NE 13mph /  20.9km/h 35.1mph /  56.5km/h 47% 0in /  0.0mm FEW
15:05 63 °F /  17.2 °C 43.5 °F /  6.4 °C 30.3in /  1024.6hPa NE 13mph /  20.9km/h 35.1mph /  56.5km/h 49% 0in /  0.0mm FEW
15:10 63 °F /  17.2 °C 44.1 °F /  6.7 °C 30.3in /  1024.6hPa NNE 14.7mph /  23.7km/h 35.1mph /  56.5km/h 50% 0in /  0.0mm FEW
15:15 63.5 °F /  17.5 °C 44.1 °F /  6.7 °C 30.3in /  1024.6hPa ENE 14.7mph /  23.7km/h 35.1mph /  56.5km/h 49% 0in /  0.0mm FEW
15:20 63.1 °F /  17.3 °C 43.7 °F /  6.5 °C 30.3in /  1024.6hPa NE 12.5mph /  20.1km/h 35.1mph /  56.5km/h 49% 0in /  0.0mm FEW
15:25 62.4 °F /  16.9 °C 43.5 °F /  6.4 °C 30.3in /  1024.6hPa NE 12.5mph /  20.1km/h 35.1mph /  56.5km/h 50% 0in /  0.0mm FEW
15:30 62.4 °F /  16.9 °C 43 °F /  6.1 °C 30.3in /  1024.6hPa NE 13.5mph /  21.7km/h 35.1mph /  56.5km/h 49% 0in /  0.0mm FEW
15:35 62.8 °F /  17.1 °C 42.8 °F /  6.0 °C 30.3in /  1024.3hPa NNE 13.5mph /  21.7km/h 35.1mph /  56.5km/h 48% 0in /  0.0mm FEW
15:40 62.8 °F /  17.1 °C 42.8 °F /  6.0 °C 30.3in /  1024.3hPa ESE 13.7mph /  22.0km/h 35.1mph /  56.5km/h 48% 0in /  0.0mm FEW
15:46 63.1 °F /  17.3 °C 43.2 °F /  6.2 °C 30.3in /  1024.3hPa NE 13.7mph /  22.0km/h 35.1mph /  56.5km/h 48% 0in /  0.0mm FEW
15:51 63 °F /  17.2 °C 43.5 °F /  6.4 °C 30.3in /  1024.3hPa NNE 13.5mph /  21.7km/h 35.1mph /  56.5km/h 49% 0in /  0.0mm FEW
15:56 63.3 °F /  17.4 °C 42.6 °F /  5.9 °C 30.3in /  1024.3hPa NNE 13.5mph /  21.7km/h 35.1mph /  56.5km/h 47% 0in /  0.0mm FEW
16:01 63.3 °F /  17.4 °C 43.3 °F /  6.3 °C 30.3in /  1024.3hPa NNW 13mph /  20.9km/h 35.1mph /  56.5km/h 48% 0in /  0.0mm FEW
16:06 63.5 °F /  17.5 °C 44.1 °F /  6.7 °C 30.3in /  1024.3hPa NE 13mph /  20.9km/h 35.1mph /  56.5km/h 49% 0in /  0.0mm FEW
16:11 63.3 °F /  17.4 °C 42.3 °F /  5.7 °C 30.3in /  1024.3hPa NE 11.4mph /  18.3km/h 35.1mph /  56.5km/h 46% 0in /  0.0mm FEW
16:16 63 °F /  17.2 °C 43 °F /  6.1 °C 30.3in /  1024.3hPa NE 11.4mph /  18.3km/h 35.1mph /  56.5km/h 48% 0in /  0.0mm FEW
16:21 63.7 °F /  17.6 °C 42.4 °F /  5.8 °C 30.3in /  1024.3hPa ENE 14mph /  22.5km/h 35.1mph /  56.5km/h 46% 0in /  0.0mm FEW
16:26 63.5 °F /  17.5 °C 44.1 °F /  6.7 °C 30.3in /  1024.3hPa NE 14mph /  22.5km/h 35.1mph /  56.5km/h 49% 0in /  0.0mm FEW
16:31 63.1 °F /  17.3 °C 43.2 °F /  6.2 °C 30.3in /  1024.3hPa NE 13.5mph /  21.7km/h 35.1mph /  56.5km/h 48% 0in /  0.0mm FEW
16:36 63.5 °F /  17.5 °C 44.1 °F /  6.7 °C 30.2in /  1023.9hPa NNE 13.5mph /  21.7km/h 35.1mph /  56.5km/h 49% 0in /  0.0mm FEW
16:41 63.7 °F /  17.6 °C 43.5 °F /  6.4 °C 30.2in /  1023.9hPa ENE 13.7mph /  22.0km/h 35.1mph /  56.5km/h 48% 0in /  0.0mm FEW
16:47 63.7 °F /  17.6 °C 43.5 °F /  6.4 °C 30.2in /  1023.9hPa ENE 14mph /  22.5km/h 35.1mph /  56.5km/h 48% 0in /  0.0mm FEW
16:52 63.5 °F /  17.5 °C 43.3 °F /  6.3 °C 30.2in /  1023.9hPa ENE 14mph /  22.5km/h 35.1mph /  56.5km/h 48% 0in /  0.0mm FEW
16:57 63.7 °F /  17.6 °C 44.8 °F /  7.1 °C 30.2in /  1023.9hPa NNE 15.2mph /  24.5km/h 35.1mph /  56.5km/h 50% 0in /  0.0mm FEW
17:03 63.7 °F /  17.6 °C 45.1 °F /  7.3 °C 30.2in /  1023.9hPa NE 15.2mph /  24.5km/h 35.1mph /  56.5km/h 51% 0in /  0.0mm FEW
17:08 63.3 °F /  17.4 °C 44.4 °F /  6.9 °C 30.2in /  1023.9hPa NE 11.8mph /  19.0km/h 35.1mph /  56.5km/h 50% 0in /  0.0mm FEW
17:13 63 °F /  17.2 °C 44.4 °F /  6.9 °C 30.2in /  1023.9hPa NNE 11.8mph /  19.0km/h 35.1mph /  56.5km/h 51% 0in /  0.0mm FEW
17:19 63.1 °F /  17.3 °C 45.1 °F /  7.3 °C 30.2in /  1023.9hPa NE 14.5mph /  23.3km/h 35.1mph /  56.5km/h 52% 0in /  0.0mm FEW
17:24 63 °F /  17.2 °C 45.1 °F /  7.3 °C 30.2in /  1023.9hPa NNE 14.5mph /  23.3km/h 35.1mph /  56.5km/h 52% 0in /  0.0mm FEW
17:29 62.4 °F /  16.9 °C 45.1 °F /  7.3 °C 30.2in /  1023.9hPa NE 15mph /  24.1km/h 25mph /  40.2km/h 53% 0in /  0.0mm FEW
17:34 63 °F /  17.2 °C 45.5 °F /  7.5 °C 30.2in /  1023.9hPa NE 15mph /  24.1km/h 22mph /  35.4km/h 53% 0in /  0.0mm FEW
17:39 63.1 °F /  17.3 °C 45.7 °F /  7.6 °C 30.2in /  1023.9hPa NE 13mph /  20.9km/h 21mph /  33.8km/h 53% 0in /  0.0mm FEW
17:44 63.1 °F /  17.3 °C 45.1 °F /  7.3 °C 30.2in /  1023.9hPa ENE 12.5mph /  20.1km/h 35.1mph /  56.5km/h 52% 0in /  0.0mm FEW
17:49 62.8 °F /  17.1 °C 45 °F /  7.2 °C 30.2in /  1023.9hPa NNE 12.3mph /  19.8km/h 35.1mph /  56.5km/h 52% 0in /  0.0mm FEW
17:54 63 °F /  17.2 °C 45.7 °F /  7.6 °C 30.2in /  1023.9hPa NE 13mph /  20.9km/h 21mph /  33.8km/h 53% 0in /  0.0mm FEW
17:59 62.8 °F /  17.1 °C 46.4 °F /  8.0 °C 30.2in /  1023.9hPa NNE 11.8mph /  19.0km/h 35.1mph /  56.5km/h 55% 0in /  0.0mm FEW
18:04 63 °F /  17.2 °C 46 °F /  7.8 °C 30.2in /  1023.9hPa NE 12mph /  19.3km/h 20mph /  32.2km/h 54% 0in /  0.0mm FEW
18:09 63.1 °F /  17.3 °C 45.7 °F /  7.6 °C 30.2in /  1023.9hPa East 13mph /  20.9km/h 35.1mph /  56.5km/h 53% 0in /  0.0mm FEW
18:14 63 °F /  17.2 °C 45.5 °F /  7.5 °C 30.2in /  1023.9hPa NE 13mph /  20.9km/h 20mph /  32.2km/h 53% 0in /  0.0mm FEW
18:19 62.8 °F /  17.1 °C 44.4 °F /  6.9 °C 30.2in /  1023.9hPa NE 13mph /  20.9km/h 24mph /  38.6km/h 51% 0in /  0.0mm FEW
18:24 63 °F /  17.2 °C 44.4 °F /  6.9 °C 30.2in /  1023.9hPa ENE 13mph /  20.9km/h 24mph /  38.6km/h 51% 0in /  0.0mm FEW
18:29 63.1 °F /  17.3 °C 44.2 °F /  6.8 °C 30.2in /  1023.9hPa NE 10.7mph /  17.2km/h 35.1mph /  56.5km/h 50% 0in /  0.0mm FEW
18:34 63 °F /  17.2 °C 44.6 °F /  7.0 °C 30.2in /  1023.9hPa NE 10mph /  16.1km/h 21mph /  33.8km/h 51% 0in /  0.0mm FEW
18:39 63 °F /  17.2 °C 42.4 °F /  5.8 °C 30.3in /  1024.3hPa WNW 13mph /  20.9km/h 35.1mph /  56.5km/h 47% 0in /  0.0mm FEW
18:44 63.1 °F /  17.3 °C 41.4 °F /  5.2 °C 30.3in /  1024.3hPa NE 13mph /  20.9km/h 18mph /  29.0km/h 45% 0in /  0.0mm FEW
18:49 63.1 °F /  17.3 °C 41.4 °F /  5.2 °C 30.3in /  1024.3hPa ENE 10.7mph /  17.2km/h 35.1mph /  56.5km/h 45% 0in /  0.0mm FEW
18:54 63 °F /  17.2 °C 41.4 °F /  5.2 °C 30.3in /  1024.3hPa NE 10.7mph /  17.2km/h 35.1mph /  56.5km/h 45% 0in /  0.0mm FEW
18:59 62.8 °F /  17.1 °C 41.7 °F /  5.4 °C 30.3in /  1024.3hPa NE 9.7mph /  15.6km/h 35.1mph /  56.5km/h 46% 0in /  0.0mm FEW
19:04 62.4 °F /  16.9 °C 41.4 °F /  5.2 °C 30.3in /  1024.3hPa NNE 9.7mph /  15.6km/h 35.1mph /  56.5km/h 46% 0in /  0.0mm FEW
19:09 62.6 °F /  17.0 °C 39.7 °F /  4.3 °C 30.3in /  1024.3hPa NE 13mph /  20.9km/h 22mph /  35.4km/h 43% 0in /  0.0mm FEW
19:14 62.2 °F /  16.8 °C 41.4 °F /  5.2 °C 30.3in /  1024.3hPa NE 13mph /  20.9km/h 20mph /  32.2km/h 46% 0in /  0.0mm FEW
19:19 61.9 °F /  16.6 °C 40.8 °F /  4.9 °C 30.3in /  1024.3hPa NE 12mph /  19.3km/h 23mph /  37.0km/h 46% 0in /  0.0mm FEW
19:24 61.9 °F /  16.6 °C 40.8 °F /  4.9 °C 30.3in /  1024.3hPa NE 12mph /  19.3km/h 21mph /  33.8km/h 46% 0in /  0.0mm FEW
19:29 61.9 °F /  16.6 °C 41.4 °F /  5.2 °C 30.3in /  1024.3hPa ENE 12.3mph /  19.8km/h 35.1mph /  56.5km/h 47% 0in /  0.0mm FEW
19:34 61.9 °F /  16.6 °C 41.4 °F /  5.2 °C 30.3in /  1024.3hPa NE 13mph /  20.9km/h 19mph /  30.6km/h 47% 0in /  0.0mm FEW
19:39 61.9 °F /  16.6 °C 40.8 °F /  4.9 °C 30.3in /  1024.3hPa SE 10.7mph /  17.2km/h 35.1mph /  56.5km/h 46% 0in /  0.0mm FEW
19:44 61.7 °F /  16.5 °C 39 °F /  3.9 °C 30.3in /  1024.3hPa NE 10.7mph /  17.2km/h 35.1mph /  56.5km/h 43% 0in /  0.0mm FEW
19:49 61.5 °F /  16.4 °C 39.9 °F /  4.4 °C 30.3in /  1024.3hPa ENE 11.2mph /  18.0km/h 35.1mph /  56.5km/h 45% 0in /  0.0mm FEW
19:54 61.3 °F /  16.3 °C 40.8 °F /  4.9 °C 30.3in /  1024.3hPa NE 12mph /  19.3km/h 17mph /  27.4km/h 47% 0in /  0.0mm FEW
19:59 61.3 °F /  16.3 °C 40.8 °F /  4.9 °C 30.3in /  1024.3hPa NNW 10.2mph /  16.4km/h 35.1mph /  56.5km/h 47% 0in /  0.0mm FEW
20:04 61.2 °F /  16.2 °C 41.2 °F /  5.1 °C 30.3in /  1024.3hPa NE 10mph /  16.1km/h 19mph /  30.6km/h 48% 0in /  0.0mm FEW
20:05 61 °F /  16.1 °C 41.2 °F /  5.1 °C 30.3in /  1024.3hPa ENE 10.2mph /  16.4km/h 35.1mph /  56.5km/h 48% 0in /  0.0mm FEW
20:10 61 °F /  16.1 °C 41.2 °F /  5.1 °C 30.3in /  1024.3hPa East 10.7mph /  17.2km/h 35.1mph /  56.5km/h 48% 0in /  0.0mm FEW
20:15 60.6 °F /  15.9 °C 41.4 °F /  5.2 °C 30.3in /  1024.3hPa NE 10.7mph /  17.2km/h 35.1mph /  56.5km/h 49% 0in /  0.0mm FEW
20:20 60.6 °F /  15.9 °C 42.4 °F /  5.8 °C 30.3in /  1024.6hPa NE 11.4mph /  18.3km/h 35.1mph /  56.5km/h 51% 0in /  0.0mm FEW
20:25 60.3 °F /  15.7 °C 42.1 °F /  5.6 °C 30.3in /  1024.6hPa NNW 11.4mph /  18.3km/h 35.1mph /  56.5km/h 51% 0in /  0.0mm FEW
20:30 60.3 °F /  15.7 °C 42.6 °F /  5.9 °C 30.3in /  1024.6hPa NNE 10.7mph /  17.2km/h 35.1mph /  56.5km/h 52% 0in /  0.0mm FEW
20:35 59.9 °F /  15.5 °C 42.6 °F /  5.9 °C 30.3in /  1024.6hPa NNE 10.7mph /  17.2km/h 35.1mph /  56.5km/h 53% 0in /  0.0mm FEW
20:40 59.7 °F /  15.4 °C 43 °F /  6.1 °C 30.3in /  1024.6hPa NE 10mph /  16.1km/h 35.1mph /  56.5km/h 54% 0in /  0.0mm FEW
20:45 59.5 °F /  15.3 °C 43.3 °F /  6.3 °C 30.3in /  1024.6hPa North 10mph /  16.1km/h 35.1mph /  56.5km/h 55% 0in /  0.0mm FEW
20:50 59.4 °F /  15.2 °C 43.2 °F /  6.2 °C 30.3in /  1024.6hPa NE 11.2mph /  18.0km/h 35.1mph /  56.5km/h 55% 0in /  0.0mm FEW
20:55 59.4 °F /  15.2 °C 43.7 °F /  6.5 °C 30.3in /  1024.6hPa NE 11.2mph /  18.0km/h 35.1mph /  56.5km/h 56% 0in /  0.0mm FEW
21:00 59.4 °F /  15.2 °C 43.7 °F /  6.5 °C 30.3in /  1024.6hPa NE 10.2mph /  16.4km/h 35.1mph /  56.5km/h 56% 0in /  0.0mm FEW
21:05 59.2 °F /  15.1 °C 43.9 °F /  6.6 °C 30.3in /  1024.6hPa NNE 10.2mph /  16.4km/h 35.1mph /  56.5km/h 57% 0in /  0.0mm FEW
21:10 59.2 °F /  15.1 °C 43.9 °F /  6.6 °C 30.3in /  1024.6hPa NE 8.5mph /  13.7km/h 35.1mph /  56.5km/h 57% 0in /  0.0mm FEW
21:15 59 °F /  15.0 °C 43.9 °F /  6.6 °C 30.3in /  1024.6hPa NE 8.5mph /  13.7km/h 35.1mph /  56.5km/h 57% 0in /  0.0mm
21:20 58.8 °F /  14.9 °C 43.5 °F /  6.4 °C 30.3in /  1024.6hPa NE 8.7mph /  14.0km/h 35.1mph /  56.5km/h 57% 0in /  0.0mm
21:25 58.6 °F /  14.8 °C 43.9 °F /  6.6 °C 30.3in /  1024.6hPa NE 8.7mph /  14.0km/h 35.1mph /  56.5km/h 58% 0in /  0.0mm
21:30 58.6 °F /  14.8 °C 43.9 °F /  6.6 °C 30.3in /  1024.6hPa NNE 7.4mph /  11.9km/h 35.1mph /  56.5km/h 58% 0in /  0.0mm
21:35 58.5 °F /  14.7 °C 43.7 °F /  6.5 °C 30.3in /  1024.9hPa NE 7.4mph /  11.9km/h 35.1mph /  56.5km/h 58% 0in /  0.0mm
21:40 58.5 °F /  14.7 °C 44.2 °F /  6.8 °C 30.3in /  1024.9hPa NNE 7.4mph /  11.9km/h 35.1mph /  56.5km/h 59% 0in /  0.0mm
21:45 58.3 °F /  14.6 °C 44.1 °F /  6.7 °C 30.3in /  1024.9hPa NNE 7.4mph /  11.9km/h 35.1mph /  56.5km/h 59% 0in /  0.0mm
21:50 58.1 °F /  14.5 °C 44.2 °F /  6.8 °C 30.3in /  1024.9hPa NE 5.9mph /  9.5km/h 35.1mph /  56.5km/h 60% 0in /  0.0mm
21:55 57.9 °F /  14.4 °C 44.1 °F /  6.7 °C 30.3in /  1024.9hPa NNE 5.9mph /  9.5km/h 35.1mph /  56.5km/h 60% 0in /  0.0mm
22:00 57.7 °F /  14.3 °C 44.4 °F /  6.9 °C 30.3in /  1024.9hPa NE 5.2mph /  8.4km/h 35.1mph /  56.5km/h 61% 0in /  0.0mm
22:05 57.7 °F /  14.3 °C 44.8 °F /  7.1 °C 30.3in /  1025.6hPa NNE 5.2mph /  8.4km/h 35.1mph /  56.5km/h 62% 0in /  0.0mm
22:10 57.7 °F /  14.3 °C 44.8 °F /  7.1 °C 30.3in /  1025.6hPa NNE 5.2mph /  8.4km/h 35.1mph /  56.5km/h 62% 0in /  0.0mm
22:15 57.7 °F /  14.3 °C 45.1 °F /  7.3 °C 30.3in /  1025.6hPa NNE 5.2mph /  8.4km/h 35.1mph /  56.5km/h 63% 0in /  0.0mm CLR
22:20 57.6 °F /  14.2 °C 45.1 °F /  7.3 °C 30.3in /  1025.6hPa NNE 4.7mph /  7.6km/h 35.1mph /  56.5km/h 63% 0in /  0.0mm CLR
22:25 57.4 °F /  14.1 °C 45.3 °F /  7.4 °C 30.3in /  1025.6hPa NE 4.7mph /  7.6km/h 35.1mph /  56.5km/h 64% 0in /  0.0mm CLR
22:30 57.6 °F /  14.2 °C 45.5 °F /  7.5 °C 30.3in /  1025.6hPa NNE 5.2mph /  8.4km/h 35.1mph /  56.5km/h 64% 0in /  0.0mm CLR
22:35 57.4 °F /  14.1 °C 45.7 °F /  7.6 °C 30.3in /  1026.0hPa NNE 5.2mph /  8.4km/h 35.1mph /  56.5km/h 65% 0in /  0.0mm CLR
22:40 57.4 °F /  14.1 °C 45.7 °F /  7.6 °C 30.3in /  1026.0hPa NE 5.4mph /  8.7km/h 35.1mph /  56.5km/h 65% 0in /  0.0mm CLR
22:45 57.2 °F /  14.0 °C 45.5 °F /  7.5 °C 30.3in /  1026.0hPa NE 5.4mph /  8.7km/h 35.1mph /  56.5km/h 65% 0in /  0.0mm CLR
22:50 57 °F /  13.9 °C 45.9 °F /  7.7 °C 30.3in /  1026.0hPa NNE 5.4mph /  8.7km/h 35.1mph /  56.5km/h 66% 0in /  0.0mm CLR
22:55 56.8 °F /  13.8 °C 45.7 °F /  7.6 °C 30.3in /  1026.0hPa NE 5.4mph /  8.7km/h 35.1mph /  56.5km/h 66% 0in /  0.0mm CLR
23:01 56.8 °F /  13.8 °C 46 °F /  7.8 °C 30.3in /  1026.0hPa NNE 4.3mph /  6.9km/h 35.1mph /  56.5km/h 67% 0in /  0.0mm CLR
23:05 56.7 °F /  13.7 °C 45.9 °F /  7.7 °C 30.3in /  1026.0hPa NNE 4.3mph /  6.9km/h 35.1mph /  56.5km/h 67% 0in /  0.0mm CLR
23:10 56.7 °F /  13.7 °C 45.9 °F /  7.7 °C 30.3in /  1026.0hPa NNE 4.3mph /  6.9km/h 35.1mph /  56.5km/h 67% 0in /  0.0mm CLR
23:15 56.7 °F /  13.7 °C 46.2 °F /  7.9 °C 30.3in /  1026.0hPa ENE 4.3mph /  6.9km/h 35.1mph /  56.5km/h 68% 0in /  0.0mm CLR
23:20 56.7 °F /  13.7 °C 46.2 °F /  7.9 °C 30.3in /  1026.0hPa ENE 3.6mph /  5.8km/h 35.1mph /  56.5km/h 68% 0in /  0.0mm CLR
23:25 56.7 °F /  13.7 °C 46.2 °F /  7.9 °C 30.3in /  1026.0hPa NNE 3.6mph /  5.8km/h 35.1mph /  56.5km/h 68% 0in /  0.0mm CLR
23:30 56.7 °F /  13.7 °C 46.2 °F /  7.9 °C 30.3in /  1026.0hPa North 3.6mph /  5.8km/h 35.1mph /  56.5km/h 68% 0in /  0.0mm CLR
23:35 56.7 °F /  13.7 °C 46.2 °F /  7.9 °C 30.3in /  1026.0hPa NE 3.6mph /  5.8km/h 35.1mph /  56.5km/h 68% 0in /  0.0mm CLR
23:40 56.7 °F /  13.7 °C 46.6 °F /  8.1 °C 30.3in /  1026.0hPa NNE 4.3mph /  6.9km/h 35.1mph /  56.5km/h 69% 0in /  0.0mm CLR
23:45 56.7 °F /  13.7 °C 46.6 °F /  8.1 °C 30.3in /  1026.0hPa NNE 4.3mph /  6.9km/h 35.1mph /  56.5km/h 69% 0in /  0.0mm
23:50 56.5 °F /  13.6 °C 46.4 °F /  8.0 °C 30.3in /  1026.0hPa NNE 5.4mph /  8.7km/h 35.1mph /  56.5km/h 69% 0in /  0.0mm
23:55 56.3 °F /  13.5 °C 46.6 °F /  8.1 °C 30.3in /  1026.0hPa NE 5.4mph /  8.7km/h 35.1mph /  56.5km/h 70% 0in /  0.0mm
Murcia-Puente Tocinos, España
Compliments of Weather Underground - 2.75 mb

La estación de MeteoMurcia.com, publica sus datos en los siguientes proyectos:

Meteoclimatic www.awekas.at

W3Counter
Web Analytics